Ratibor, Texas
Current Conditions -  °F | °C
As of 9:55 AM on Thursday 30 Oct 2014 (Local Time) from KTPL Reporting Station
Overcast Overcast  
Wind Chill: 63°   Ceiling: 4800
Heat Index: 63°   Visibility: 10mi
Dew Point: 48°   Wind: 12mph
Humidity: 59%   Direction: 140°SE
Pressure: 30.17"   Gusts: NA
Location:  31.0795°N, 97.3287°W
Report Text: KTPL 301455Z AUTO 14010KT 10SM BKN048 OVC060 17/09 A3017 RMK AO1 52017
Loading
Personal Weather Stations






























Interactive Weather Map
Tropical Storm Tracking
New forecast layout! Learn more

10-Day Weather Forecast

Advertisements
Track Severe Weather on mobile